This is the latest recevied weather packets stored in our database for station/object SP9POL-3. If no packets are shown the sender has not sent any weather packets the latest 10 day(s).
| Time | Temp. | Humidity | Pressure | Rain* | Wind** | Luminosity | Snow |
|---|---|---|---|---|---|---|---|
| 1777150232 | 10.56° C | 38% | 1003.5 hPa | - | - | - | - |
| 1777148552 | 10.56° C | 38% | 1003.9 hPa | - | - | - | - |
| 1777146871 | 11.11° C | 37% | 1004.3 hPa | - | - | - | - |
| 1777145191 | 11.11° C | 37% | 1004.5 hPa | - | - | - | - |
| 1777143511 | 11.67° C | 37% | 1004.8 hPa | - | - | - | - |
| 1777141830 | 12.22° C | 36% | 1004.8 hPa | - | - | - | - |
| 1777140150 | 12.22° C | 35% | 1004.8 hPa | - | - | - | - |
| 1777138470 | 12.78° C | 33% | 1005 hPa | - | - | - | - |
| 1777136790 | 13.33° C | 33% | 1005.1 hPa | - | - | - | - |
| 1777135110 | 13.89° C | 33% | 1005.2 hPa | - | - | - | - |
| 1777133429 | 14.44° C | 33% | 1005.3 hPa | - | - | - | - |
| 1777131749 | 15° C | 33% | 1005.9 hPa | - | - | - | - |
| 1777130069 | 17.22° C | 31% | 1005.9 hPa | - | - | - | - |
| 1777128389 | 16.11° C | 33% | 1006.2 hPa | - | - | - | - |
| 1777126709 | 13.89° C | 35% | 1006.6 hPa | - | - | - | - |
| 1777125029 | 12.78° C | 39% | 1006.7 hPa | - | - | - | - |
| 1777123349 | 13.33° C | 41% | 1006.4 hPa | - | - | - | - |
| 1777121669 | 13.33° C | 42% | 1006.6 hPa | - | - | - | - |
| 1777119988 | 15° C | 39% | 1006.8 hPa | - | - | - | - |
| 1777118308 | 16.67° C | 37% | 1006.4 hPa | - | - | - | - |
* Rain since midnight (hover to see other rain measurements)
** Current wind speed in m/s (hover to see current wind gust speed)